sensor_id;sensor_type;location;lat;lon;timestamp;P1;durP1;ratioP1;P2;durP2;ratioP2
3967;SDS011;9221;42.646;23.380;2022-11-30T00:00:33;2.20;;;0.90;;
3967;SDS011;9221;42.646;23.380;2022-11-30T00:02:58;3.23;;;1.47;;
3967;SDS011;9221;42.646;23.380;2022-11-30T00:05:24;1.90;;;1.10;;
3967;SDS011;9221;42.646;23.380;2022-11-30T00:07:49;2.87;;;1.23;;
3967;SDS011;9221;42.646;23.380;2022-11-30T00:10:15;2.33;;;0.80;;
3967;SDS011;9221;42.646;23.380;2022-11-30T00:12:40;1.47;;;1.10;;
3967;SDS011;9221;42.646;23.380;2022-11-30T00:15:08;2.27;;;1.13;;
3967;SDS011;9221;42.646;23.380;2022-11-30T00:17:36;1.00;;;0.77;;
3967;SDS011;9221;42.646;23.380;2022-11-30T00:20:01;4.30;;;1.60;;
3967;SDS011;9221;42.646;23.380;2022-11-30T00:22:27;7.00;;;1.37;;
3967;SDS011;9221;42.646;23.380;2022-11-30T00:24:52;3.00;;;1.27;;
3967;SDS011;9221;42.646;23.380;2022-11-30T00:27:18;2.67;;;1.27;;
3967;SDS011;9221;42.646;23.380;2022-11-30T00:29:43;1.73;;;1.00;;
3967;SDS011;9221;42.646;23.380;2022-11-30T00:32:09;2.80;;;1.53;;
3967;SDS011;9221;42.646;23.380;2022-11-30T00:34:34;1.90;;;1.10;;
3967;SDS011;9221;42.646;23.380;2022-11-30T00:36:59;2.40;;;1.60;;
3967;SDS011;9221;42.646;23.380;2022-11-30T00:39:25;2.57;;;1.30;;
3967;SDS011;9221;42.646;23.380;2022-11-30T00:41:50;1.37;;;1.13;;
3967;SDS011;9221;42.646;23.380;2022-11-30T00:44:16;3.80;;;1.27;;
3967;SDS011;9221;42.646;23.380;2022-11-30T00:46:41;2.80;;;1.00;;
3967;SDS011;9221;42.646;23.380;2022-11-30T00:49:06;3.13;;;1.10;;
3967;SDS011;9221;42.646;23.380;2022-11-30T00:51:32;1.70;;;1.00;;
3967;SDS011;9221;42.646;23.380;2022-11-30T00:53:57;3.33;;;0.93;;
3967;SDS011;9221;42.646;23.380;2022-11-30T00:56:22;2.80;;;1.07;;
3967;SDS011;9221;42.646;23.380;2022-11-30T00:58:48;2.93;;;1.27;;
3967;SDS011;9221;42.646;23.380;2022-11-30T01:01:13;3.40;;;0.73;;
3967;SDS011;9221;42.646;23.380;2022-11-30T01:03:39;1.93;;;0.90;;
3967;SDS011;9221;42.646;23.380;2022-11-30T01:06:05;1.00;;;0.70;;
3967;SDS011;9221;42.646;23.380;2022-11-30T01:08:33;1.67;;;0.80;;
3967;SDS011;9221;42.646;23.380;2022-11-30T01:11:20;1.60;;;0.83;;
3967;SDS011;9221;42.646;23.380;2022-11-30T01:13:47;1.20;;;0.60;;
3967;SDS011;9221;42.646;23.380;2022-11-30T01:16:16;6.73;;;1.10;;
3967;SDS011;9221;42.646;23.380;2022-11-30T01:18:44;1.97;;;1.10;;
3967;SDS011;9221;42.646;23.380;2022-11-30T01:21:11;2.47;;;1.03;;
3967;SDS011;9221;42.646;23.380;2022-11-30T01:23:39;1.80;;;1.00;;
3967;SDS011;9221;42.646;23.380;2022-11-30T01:26:05;2.70;;;1.10;;
3967;SDS011;9221;42.646;23.380;2022-11-30T01:28:31;1.63;;;0.80;;
3967;SDS011;9221;42.646;23.380;2022-11-30T01:30:58;2.93;;;1.00;;
3967;SDS011;9221;42.646;23.380;2022-11-30T01:33:25;2.93;;;0.93;;
3967;SDS011;9221;42.646;23.380;2022-11-30T01:38:37;1.50;;;1.10;;
3967;SDS011;9221;42.646;23.380;2022-11-30T01:41:07;2.10;;;1.33;;
3967;SDS011;9221;42.646;23.380;2022-11-30T01:54:28;1.60;;;1.07;;
3967;SDS011;9221;42.646;23.380;2022-11-30T02:00:17;1.97;;;0.90;;
3967;SDS011;9221;42.646;23.380;2022-11-30T02:02:49;1.30;;;0.80;;
3967;SDS011;9221;42.646;23.380;2022-11-30T02:05:22;4.33;;;1.00;;
3967;SDS011;9221;42.646;23.380;2022-11-30T02:07:49;9.20;;;1.50;;
3967;SDS011;9221;42.646;23.380;2022-11-30T02:10:17;1.93;;;1.00;;
3967;SDS011;9221;42.646;23.380;2022-11-30T02:18:34;1.37;;;1.27;;
3967;SDS011;9221;42.646;23.380;2022-11-30T02:31:50;1.60;;;0.90;;
3967;SDS011;9221;42.646;23.380;2022-11-30T02:34:19;1.23;;;0.83;;
3967;SDS011;9221;42.646;23.380;2022-11-30T02:36:47;2.60;;;1.20;;
3967;SDS011;9221;42.646;23.380;2022-11-30T02:39:12;2.30;;;0.90;;
3967;SDS011;9221;42.646;23.380;2022-11-30T02:41:39;2.00;;;1.07;;
3967;SDS011;9221;42.646;23.380;2022-11-30T02:44:05;2.23;;;0.97;;
3967;SDS011;9221;42.646;23.380;2022-11-30T02:46:40;1.43;;;0.80;;
3967;SDS011;9221;42.646;23.380;2022-11-30T02:51:51;4.00;;;1.10;;
3967;SDS011;9221;42.646;23.380;2022-11-30T02:54:19;2.07;;;0.97;;
3967;SDS011;9221;42.646;23.380;2022-11-30T02:56:45;4.00;;;0.97;;
3967;SDS011;9221;42.646;23.380;2022-11-30T02:59:10;3.10;;;1.30;;
3967;SDS011;9221;42.646;23.380;2022-11-30T03:01:36;1.47;;;0.70;;
3967;SDS011;9221;42.646;23.380;2022-11-30T03:04:03;1.67;;;0.70;;
3967;SDS011;9221;42.646;23.380;2022-11-30T03:06:28;1.67;;;0.87;;
3967;SDS011;9221;42.646;23.380;2022-11-30T03:08:54;1.10;;;1.00;;
3967;SDS011;9221;42.646;23.380;2022-11-30T03:11:19;2.83;;;0.73;;
3967;SDS011;9221;42.646;23.380;2022-11-30T03:13:44;0.93;;;0.70;;
3967;SDS011;9221;42.646;23.380;2022-11-30T03:16:10;1.30;;;0.90;;
3967;SDS011;9221;42.646;23.380;2022-11-30T03:18:37;1.00;;;0.60;;
3967;SDS011;9221;42.646;23.380;2022-11-30T03:21:04;0.73;;;0.43;;
3967;SDS011;9221;42.646;23.380;2022-11-30T03:23:31;3.30;;;0.97;;
3967;SDS011;9221;42.646;23.380;2022-11-30T03:25:57;1.57;;;0.60;;
3967;SDS011;9221;42.646;23.380;2022-11-30T04:27:59;1.57;;;0.60;;
3967;SDS011;9221;42.646;23.380;2022-11-30T04:30:25;0.50;;;0.40;;
3967;SDS011;9221;42.646;23.380;2022-11-30T04:32:50;2.00;;;0.50;;
3967;SDS011;9221;42.646;23.380;2022-11-30T04:35:16;0.47;;;0.43;;
3967;SDS011;9221;42.646;23.380;2022-11-30T04:37:41;1.03;;;0.53;;
3967;SDS011;9221;42.646;23.380;2022-11-30T04:40:07;1.77;;;0.60;;
3967;SDS011;9221;42.646;23.380;2022-11-30T04:42:33;0.83;;;0.40;;
3967;SDS011;9221;42.646;23.380;2022-11-30T04:44:58;0.90;;;0.50;;
3967;SDS011;9221;42.646;23.380;2022-11-30T04:47:24;1.90;;;0.60;;
3967;SDS011;9221;42.646;23.380;2022-11-30T04:49:50;0.83;;;0.60;;
3967;SDS011;9221;42.646;23.380;2022-11-30T04:52:15;1.17;;;0.60;;
3967;SDS011;9221;42.646;23.380;2022-11-30T04:54:40;1.80;;;0.63;;
3967;SDS011;9221;42.646;23.380;2022-11-30T04:57:06;0.63;;;0.63;;
3967;SDS011;9221;42.646;23.380;2022-11-30T04:59:31;0.77;;;0.60;;
3967;SDS011;9221;42.646;23.380;2022-11-30T05:01:56;0.50;;;0.40;;
3967;SDS011;9221;42.646;23.380;2022-11-30T05:04:22;0.53;;;0.50;;
3967;SDS011;9221;42.646;23.380;2022-11-30T05:06:47;2.17;;;0.77;;
3967;SDS011;9221;42.646;23.380;2022-11-30T05:09:13;6.03;;;1.20;;
3967;SDS011;9221;42.646;23.380;2022-11-30T05:11:38;2.27;;;0.83;;
3967;SDS011;9221;42.646;23.380;2022-11-30T05:14:04;0.97;;;0.63;;
3967;SDS011;9221;42.646;23.380;2022-11-30T05:16:29;9.10;;;0.77;;
3967;SDS011;9221;42.646;23.380;2022-11-30T05:18:55;0.93;;;0.50;;
3967;SDS011;9221;42.646;23.380;2022-11-30T05:21:20;1.03;;;0.80;;
3967;SDS011;9221;42.646;23.380;2022-11-30T05:23:45;1.40;;;0.57;;
3967;SDS011;9221;42.646;23.380;2022-11-30T05:26:12;7.37;;;1.17;;
3967;SDS011;9221;42.646;23.380;2022-11-30T05:28:38;0.80;;;0.80;;
3967;SDS011;9221;42.646;23.380;2022-11-30T05:31:04;1.23;;;0.77;;
3967;SDS011;9221;42.646;23.380;2022-11-30T05:33:30;1.00;;;0.87;;
3967;SDS011;9221;42.646;23.380;2022-11-30T05:35:56;1.13;;;0.90;;
3967;SDS011;9221;42.646;23.380;2022-11-30T05:38:21;5.90;;;0.70;;
3967;SDS011;9221;42.646;23.380;2022-11-30T05:40:47;0.70;;;0.70;;
3967;SDS011;9221;42.646;23.380;2022-11-30T05:43:12;2.30;;;1.43;;
3967;SDS011;9221;42.646;23.380;2022-11-30T05:45:38;2.17;;;1.23;;
3967;SDS011;9221;42.646;23.380;2022-11-30T05:48:03;2.33;;;1.10;;
3967;SDS011;9221;42.646;23.380;2022-11-30T05:50:29;1.53;;;0.60;;
3967;SDS011;9221;42.646;23.380;2022-11-30T05:52:55;1.90;;;0.93;;
3967;SDS011;9221;42.646;23.380;2022-11-30T05:55:23;1.63;;;0.93;;
3967;SDS011;9221;42.646;23.380;2022-11-30T05:57:49;1.43;;;0.93;;
3967;SDS011;9221;42.646;23.380;2022-11-30T06:00:14;0.90;;;0.90;;
3967;SDS011;9221;42.646;23.380;2022-11-30T06:02:40;5.50;;;2.20;;
3967;SDS011;9221;42.646;23.380;2022-11-30T06:05:06;3.27;;;1.30;;
3967;SDS011;9221;42.646;23.380;2022-11-30T06:07:31;4.60;;;1.17;;
3967;SDS011;9221;42.646;23.380;2022-11-30T06:09:57;2.00;;;1.10;;
3967;SDS011;9221;42.646;23.380;2022-11-30T06:12:22;2.40;;;1.00;;
3967;SDS011;9221;42.646;23.380;2022-11-30T06:14:48;7.00;;;0.90;;
3967;SDS011;9221;42.646;23.380;2022-11-30T06:17:14;2.60;;;1.00;;
3967;SDS011;9221;42.646;23.380;2022-11-30T06:19:40;2.17;;;1.00;;
3967;SDS011;9221;42.646;23.380;2022-11-30T06:22:05;1.43;;;0.90;;
3967;SDS011;9221;42.646;23.380;2022-11-30T06:24:31;2.07;;;0.93;;
3967;SDS011;9221;42.646;23.380;2022-11-30T06:26:56;2.00;;;0.83;;
3967;SDS011;9221;42.646;23.380;2022-11-30T06:29:22;10.90;;;1.37;;
3967;SDS011;9221;42.646;23.380;2022-11-30T06:31:47;2.77;;;1.27;;
3967;SDS011;9221;42.646;23.380;2022-11-30T06:34:12;2.00;;;1.13;;
3967;SDS011;9221;42.646;23.380;2022-11-30T06:36:38;1.30;;;1.07;;
3967;SDS011;9221;42.646;23.380;2022-11-30T06:39:03;5.40;;;1.13;;
3967;SDS011;9221;42.646;23.380;2022-11-30T06:41:29;1.57;;;0.80;;
3967;SDS011;9221;42.646;23.380;2022-11-30T06:43:54;4.77;;;0.93;;
3967;SDS011;9221;42.646;23.380;2022-11-30T06:46:20;2.83;;;1.03;;
3967;SDS011;9221;42.646;23.380;2022-11-30T06:48:49;2.03;;;1.47;;
3967;SDS011;9221;42.646;23.380;2022-11-30T06:51:17;2.53;;;1.40;;
3967;SDS011;9221;42.646;23.380;2022-11-30T06:53:43;3.00;;;1.40;;
3967;SDS011;9221;42.646;23.380;2022-11-30T06:56:10;4.10;;;1.57;;
3967;SDS011;9221;42.646;23.380;2022-11-30T06:58:37;1.03;;;0.80;;
3967;SDS011;9221;42.646;23.380;2022-11-30T07:01:04;2.70;;;1.23;;
3967;SDS011;9221;42.646;23.380;2022-11-30T07:03:30;2.33;;;1.50;;
3967;SDS011;9221;42.646;23.380;2022-11-30T07:05:56;3.10;;;1.47;;
3967;SDS011;9221;42.646;23.380;2022-11-30T07:08:22;2.30;;;1.30;;
3967;SDS011;9221;42.646;23.380;2022-11-30T07:10:48;3.33;;;1.60;;
3967;SDS011;9221;42.646;23.380;2022-11-30T07:13:14;4.00;;;1.50;;
3967;SDS011;9221;42.646;23.380;2022-11-30T07:15:42;2.00;;;1.10;;
3967;SDS011;9221;42.646;23.380;2022-11-30T07:18:08;1.80;;;0.90;;
3967;SDS011;9221;42.646;23.380;2022-11-30T07:20:35;3.80;;;1.27;;
3967;SDS011;9221;42.646;23.380;2022-11-30T07:23:00;2.93;;;1.13;;
3967;SDS011;9221;42.646;23.380;2022-11-30T07:25:46;1.90;;;0.73;;
3967;SDS011;9221;42.646;23.380;2022-11-30T07:28:32;2.00;;;1.00;;
3967;SDS011;9221;42.646;23.380;2022-11-30T07:30:58;1.27;;;0.70;;
3967;SDS011;9221;42.646;23.380;2022-11-30T07:33:24;1.37;;;0.80;;
3967;SDS011;9221;42.646;23.380;2022-11-30T07:35:51;3.27;;;0.77;;
3967;SDS011;9221;42.646;23.380;2022-11-30T07:38:17;0.60;;;0.57;;
3967;SDS011;9221;42.646;23.380;2022-11-30T07:40:43;1.33;;;0.73;;
3967;SDS011;9221;42.646;23.380;2022-11-30T07:49:51;1.67;;;0.97;;
3967;SDS011;9221;42.646;23.380;2022-11-30T07:52:17;1.83;;;0.40;;
3967;SDS011;9221;42.646;23.380;2022-11-30T07:55:01;2.07;;;0.63;;
3967;SDS011;9221;42.646;23.380;2022-11-30T07:57:26;2.07;;;0.63;;
3967;SDS011;9221;42.646;23.380;2022-11-30T07:59:52;0.97;;;0.63;;
3967;SDS011;9221;42.646;23.380;2022-11-30T08:02:17;7.50;;;0.80;;
3967;SDS011;9221;42.646;23.380;2022-11-30T08:04:42;2.90;;;0.40;;
3967;SDS011;9221;42.646;23.380;2022-11-30T08:07:08;1.50;;;1.00;;
3967;SDS011;9221;42.646;23.380;2022-11-30T08:09:33;0.70;;;0.60;;
3967;SDS011;9221;42.646;23.380;2022-11-30T08:11:59;0.43;;;0.40;;
3967;SDS011;9221;42.646;23.380;2022-11-30T08:14:24;1.93;;;0.73;;
3967;SDS011;9221;42.646;23.380;2022-11-30T08:16:50;1.53;;;0.70;;
3967;SDS011;9221;42.646;23.380;2022-11-30T08:19:15;1.53;;;0.60;;
3967;SDS011;9221;42.646;23.380;2022-11-30T08:21:41;1.07;;;0.70;;
3967;SDS011;9221;42.646;23.380;2022-11-30T08:24:08;1.10;;;0.50;;
3967;SDS011;9221;42.646;23.380;2022-11-30T08:26:36;1.27;;;0.57;;
3967;SDS011;9221;42.646;23.380;2022-11-30T08:29:02;1.10;;;0.57;;
3967;SDS011;9221;42.646;23.380;2022-11-30T08:31:31;1.93;;;0.33;;
3967;SDS011;9221;42.646;23.380;2022-11-30T08:34:00;0.80;;;0.57;;
3967;SDS011;9221;42.646;23.380;2022-11-30T08:36:28;4.63;;;0.80;;
3967;SDS011;9221;42.646;23.380;2022-11-30T08:38:55;1.57;;;0.87;;
3967;SDS011;9221;42.646;23.380;2022-11-30T08:41:21;1.63;;;0.60;;
3967;SDS011;9221;42.646;23.380;2022-11-30T08:43:47;1.70;;;0.77;;
3967;SDS011;9221;42.646;23.380;2022-11-30T08:46:14;4.20;;;0.80;;
3967;SDS011;9221;42.646;23.380;2022-11-30T08:48:41;8.20;;;0.60;;
3967;SDS011;9221;42.646;23.380;2022-11-30T08:51:07;1.30;;;0.63;;
3967;SDS011;9221;42.646;23.380;2022-11-30T08:53:35;3.50;;;0.90;;
3967;SDS011;9221;42.646;23.380;2022-11-30T08:56:05;3.27;;;1.23;;
3967;SDS011;9221;42.646;23.380;2022-11-30T08:58:33;2.03;;;0.80;;
3967;SDS011;9221;42.646;23.380;2022-11-30T09:01:05;3.43;;;1.10;;
3967;SDS011;9221;42.646;23.380;2022-11-30T09:03:30;1.17;;;0.80;;
3967;SDS011;9221;42.646;23.380;2022-11-30T09:06:01;1.80;;;1.20;;
3967;SDS011;9221;42.646;23.380;2022-11-30T09:08:47;5.70;;;1.20;;
3967;SDS011;9221;42.646;23.380;2022-11-30T09:11:15;1.83;;;1.07;;
3967;SDS011;9221;42.646;23.380;2022-11-30T09:13:41;2.90;;;1.10;;
3967;SDS011;9221;42.646;23.380;2022-11-30T09:16:08;10.70;;;1.50;;
3967;SDS011;9221;42.646;23.380;2022-11-30T09:18:34;1.47;;;0.80;;
3967;SDS011;9221;42.646;23.380;2022-11-30T09:21:07;4.77;;;1.70;;
3967;SDS011;9221;42.646;23.380;2022-11-30T09:23:35;1.43;;;1.23;;
3967;SDS011;9221;42.646;23.380;2022-11-30T09:26:02;2.80;;;1.30;;
3967;SDS011;9221;42.646;23.380;2022-11-30T09:28:30;7.93;;;1.60;;
3967;SDS011;9221;42.646;23.380;2022-11-30T09:31:03;3.10;;;1.00;;
3967;SDS011;9221;42.646;23.380;2022-11-30T09:33:30;2.07;;;0.83;;
3967;SDS011;9221;42.646;23.380;2022-11-30T09:35:58;2.70;;;1.27;;
3967;SDS011;9221;42.646;23.380;2022-11-30T09:38:25;2.00;;;1.30;;
3967;SDS011;9221;42.646;23.380;2022-11-30T09:40:54;0.97;;;0.80;;
3967;SDS011;9221;42.646;23.380;2022-11-30T09:46:03;1.50;;;0.70;;
3967;SDS011;9221;42.646;23.380;2022-11-30T09:51:23;1.83;;;1.00;;
3967;SDS011;9221;42.646;23.380;2022-11-30T09:53:54;1.70;;;0.93;;
3967;SDS011;9221;42.646;23.380;2022-11-30T09:56:27;1.90;;;0.70;;
3967;SDS011;9221;42.646;23.380;2022-11-30T09:59:03;1.80;;;0.93;;
3967;SDS011;9221;42.646;23.380;2022-11-30T10:01:36;1.40;;;0.70;;
3967;SDS011;9221;42.646;23.380;2022-11-30T10:04:02;2.10;;;0.90;;
3967;SDS011;9221;42.646;23.380;2022-11-30T10:12:23;1.00;;;0.80;;
3967;SDS011;9221;42.646;23.380;2022-11-30T10:20:30;1.00;;;0.87;;
3967;SDS011;9221;42.646;23.380;2022-11-30T10:26:29;1.27;;;0.60;;
3967;SDS011;9221;42.646;23.380;2022-11-30T10:29:01;2.70;;;0.87;;
3967;SDS011;9221;42.646;23.380;2022-11-30T10:31:37;0.80;;;0.60;;
3967;SDS011;9221;42.646;23.380;2022-11-30T10:34:24;2.03;;;0.70;;
3967;SDS011;9221;42.646;23.380;2022-11-30T10:39:40;1.17;;;0.57;;
3967;SDS011;9221;42.646;23.380;2022-11-30T10:42:15;10.90;;;1.10;;
3967;SDS011;9221;42.646;23.380;2022-11-30T10:44:58;1.13;;;0.63;;
3967;SDS011;9221;42.646;23.380;2022-11-30T10:47:29;1.63;;;0.73;;
3967;SDS011;9221;42.646;23.380;2022-11-30T10:50:01;2.00;;;1.20;;
3967;SDS011;9221;42.646;23.380;2022-11-30T10:52:29;1.50;;;1.33;;
3967;SDS011;9221;42.646;23.380;2022-11-30T10:54:58;1.63;;;0.90;;
3967;SDS011;9221;42.646;23.380;2022-11-30T10:57:27;1.00;;;0.73;;
3967;SDS011;9221;42.646;23.380;2022-11-30T10:59:56;2.40;;;1.00;;
3967;SDS011;9221;42.646;23.380;2022-11-30T11:05:19;2.73;;;0.80;;
3967;SDS011;9221;42.646;23.380;2022-11-30T11:07:50;1.40;;;0.80;;
3967;SDS011;9221;42.646;23.380;2022-11-30T11:10:16;1.57;;;1.10;;
3967;SDS011;9221;42.646;23.380;2022-11-30T11:12:49;3.50;;;1.37;;
3967;SDS011;9221;42.646;23.380;2022-11-30T11:15:18;4.63;;;1.27;;
3967;SDS011;9221;42.646;23.380;2022-11-30T11:18:50;4.57;;;1.30;;
3967;SDS011;9221;42.646;23.380;2022-11-30T11:20:48;4.30;;;1.10;;
3967;SDS011;9221;42.646;23.380;2022-11-30T11:26:04;2.93;;;1.00;;
3967;SDS011;9221;42.646;23.380;2022-11-30T11:28:31;1.70;;;1.10;;
3967;SDS011;9221;42.646;23.380;2022-11-30T11:31:13;1.60;;;0.83;;
3967;SDS011;9221;42.646;23.380;2022-11-30T11:33:50;2.00;;;1.40;;
3967;SDS011;9221;42.646;23.380;2022-11-30T11:39:23;2.27;;;1.07;;
3967;SDS011;9221;42.646;23.380;2022-11-30T11:41:50;2.80;;;1.30;;
3967;SDS011;9221;42.646;23.380;2022-11-30T11:49:20;0.93;;;0.80;;
3967;SDS011;9221;42.646;23.380;2022-11-30T11:51:57;1.50;;;1.10;;
3967;SDS011;9221;42.646;23.380;2022-11-30T11:54:29;3.93;;;1.43;;
3967;SDS011;9221;42.646;23.380;2022-11-30T11:56:59;2.90;;;1.07;;
3967;SDS011;9221;42.646;23.380;2022-11-30T12:01:57;3.50;;;1.20;;
3967;SDS011;9221;42.646;23.380;2022-11-30T12:09:54;3.53;;;1.13;;
3967;SDS011;9221;42.646;23.380;2022-11-30T12:12:27;2.60;;;1.20;;
3967;SDS011;9221;42.646;23.380;2022-11-30T12:14:53;2.17;;;0.93;;
3967;SDS011;9221;42.646;23.380;2022-11-30T12:25:37;0.60;;;0.57;;
3967;SDS011;9221;42.646;23.380;2022-11-30T12:40:47;1.90;;;1.17;;
3967;SDS011;9221;42.646;23.380;2022-11-30T12:43:33;2.10;;;0.97;;
3967;SDS011;9221;42.646;23.380;2022-11-30T12:46:06;2.03;;;1.20;;
3967;SDS011;9221;42.646;23.380;2022-11-30T12:57:03;2.60;;;1.33;;
3967;SDS011;9221;42.646;23.380;2022-11-30T12:59:46;5.93;;;1.30;;
3967;SDS011;9221;42.646;23.380;2022-11-30T13:05:47;2.63;;;1.10;;
3967;SDS011;9221;42.646;23.380;2022-11-30T13:08:27;4.23;;;1.17;;
3967;SDS011;9221;42.646;23.380;2022-11-30T13:11:04;5.20;;;1.10;;
3967;SDS011;9221;42.646;23.380;2022-11-30T13:13:53;4.10;;;1.13;;
3967;SDS011;9221;42.646;23.380;2022-11-30T13:16:21;1.70;;;0.83;;
3967;SDS011;9221;42.646;23.380;2022-11-30T13:18:51;4.60;;;0.80;;
3967;SDS011;9221;42.646;23.380;2022-11-30T13:21:33;3.60;;;1.03;;
3967;SDS011;9221;42.646;23.380;2022-11-30T13:32:12;4.97;;;2.73;;
3967;SDS011;9221;42.646;23.380;2022-11-30T13:34:39;12.13;;;5.40;;
3967;SDS011;9221;42.646;23.380;2022-11-30T13:37:17;11.40;;;6.17;;
3967;SDS011;9221;42.646;23.380;2022-11-30T13:39:51;3.10;;;1.53;;
3967;SDS011;9221;42.646;23.380;2022-11-30T13:45:16;5.67;;;1.40;;
3967;SDS011;9221;42.646;23.380;2022-11-30T13:47:45;2.80;;;1.43;;
3967;SDS011;9221;42.646;23.380;2022-11-30T13:50:24;3.37;;;0.93;;
3967;SDS011;9221;42.646;23.380;2022-11-30T13:55:50;2.20;;;0.70;;
3967;SDS011;9221;42.646;23.380;2022-11-30T13:58:28;8.30;;;1.23;;
3967;SDS011;9221;42.646;23.380;2022-11-30T14:09:11;2.80;;;1.40;;
3967;SDS011;9221;42.646;23.380;2022-11-30T14:11:43;2.77;;;1.50;;
3967;SDS011;9221;42.646;23.380;2022-11-30T14:17:18;3.83;;;1.57;;
3967;SDS011;9221;42.646;23.380;2022-11-30T14:19:47;2.47;;;1.50;;
3967;SDS011;9221;42.646;23.380;2022-11-30T14:22:15;3.33;;;1.77;;
3967;SDS011;9221;42.646;23.380;2022-11-30T14:24:45;8.57;;;2.30;;
3967;SDS011;9221;42.646;23.380;2022-11-30T14:27:30;7.13;;;2.50;;
3967;SDS011;9221;42.646;23.380;2022-11-30T14:29:58;3.77;;;2.00;;
3967;SDS011;9221;42.646;23.380;2022-11-30T14:32:45;7.00;;;1.53;;
3967;SDS011;9221;42.646;23.380;2022-11-30T14:35:19;3.03;;;1.17;;
3967;SDS011;9221;42.646;23.380;2022-11-30T14:37:53;7.13;;;2.30;;
3967;SDS011;9221;42.646;23.380;2022-11-30T14:40:20;9.03;;;2.20;;
3967;SDS011;9221;42.646;23.380;2022-11-30T14:42:48;4.40;;;1.90;;
3967;SDS011;9221;42.646;23.380;2022-11-30T14:45:20;7.50;;;2.60;;
3967;SDS011;9221;42.646;23.380;2022-11-30T14:47:52;3.90;;;2.00;;
3967;SDS011;9221;42.646;23.380;2022-11-30T14:50:27;9.97;;;3.50;;
3967;SDS011;9221;42.646;23.380;2022-11-30T14:58:29;5.27;;;1.43;;
3967;SDS011;9221;42.646;23.380;2022-11-30T15:01:14;6.70;;;1.63;;
3967;SDS011;9221;42.646;23.380;2022-11-30T15:03:44;3.70;;;1.40;;
3967;SDS011;9221;42.646;23.380;2022-11-30T15:06:15;4.83;;;1.70;;
3967;SDS011;9221;42.646;23.380;2022-11-30T15:08:47;2.80;;;1.50;;
3967;SDS011;9221;42.646;23.380;2022-11-30T15:11:17;7.00;;;1.93;;
3967;SDS011;9221;42.646;23.380;2022-11-30T15:13:44;5.80;;;1.90;;
3967;SDS011;9221;42.646;23.380;2022-11-30T15:16:16;3.07;;;1.30;;
3967;SDS011;9221;42.646;23.380;2022-11-30T15:18:46;4.23;;;1.97;;
3967;SDS011;9221;42.646;23.380;2022-11-30T15:21:23;4.20;;;1.60;;
3967;SDS011;9221;42.646;23.380;2022-11-30T15:23:54;8.63;;;2.30;;
3967;SDS011;9221;42.646;23.380;2022-11-30T15:26:25;4.80;;;1.77;;
3967;SDS011;9221;42.646;23.380;2022-11-30T15:28:56;3.30;;;1.70;;
3967;SDS011;9221;42.646;23.380;2022-11-30T15:31:34;6.50;;;2.03;;
3967;SDS011;9221;42.646;23.380;2022-11-30T15:34:02;4.60;;;1.70;;
3967;SDS011;9221;42.646;23.380;2022-11-30T15:36:36;2.70;;;1.57;;
3967;SDS011;9221;42.646;23.380;2022-11-30T15:39:04;5.80;;;2.23;;
3967;SDS011;9221;42.646;23.380;2022-11-30T15:41:32;3.13;;;1.70;;
3967;SDS011;9221;42.646;23.380;2022-11-30T15:43:58;5.57;;;1.80;;
3967;SDS011;9221;42.646;23.380;2022-11-30T15:47:21;6.90;;;2.07;;
3967;SDS011;9221;42.646;23.380;2022-11-30T15:49:26;1.77;;;1.13;;
3967;SDS011;9221;42.646;23.380;2022-11-30T15:52:04;2.70;;;1.30;;
3967;SDS011;9221;42.646;23.380;2022-11-30T15:54:49;3.63;;;1.43;;
3967;SDS011;9221;42.646;23.380;2022-11-30T15:57:19;1.87;;;1.10;;
3967;SDS011;9221;42.646;23.380;2022-11-30T16:02:48;3.60;;;1.50;;
3967;SDS011;9221;42.646;23.380;2022-11-30T16:12:48;5.17;;;1.20;;
3967;SDS011;9221;42.646;23.380;2022-11-30T16:15:20;4.13;;;1.80;;
3967;SDS011;9221;42.646;23.380;2022-11-30T16:17:45;4.50;;;1.63;;
3967;SDS011;9221;42.646;23.380;2022-11-30T16:20:11;4.20;;;1.63;;
3967;SDS011;9221;42.646;23.380;2022-11-30T16:22:40;3.37;;;1.73;;
3967;SDS011;9221;42.646;23.380;2022-11-30T16:25:14;2.77;;;1.43;;
3967;SDS011;9221;42.646;23.380;2022-11-30T16:27:41;6.77;;;2.23;;
3967;SDS011;9221;42.646;23.380;2022-11-30T16:30:08;3.63;;;1.33;;
3967;SDS011;9221;42.646;23.380;2022-11-30T16:32:37;4.10;;;1.83;;
3967;SDS011;9221;42.646;23.380;2022-11-30T16:35:07;11.07;;;2.07;;
3967;SDS011;9221;42.646;23.380;2022-11-30T16:37:44;6.17;;;2.50;;
3967;SDS011;9221;42.646;23.380;2022-11-30T16:40:10;7.23;;;1.80;;
3967;SDS011;9221;42.646;23.380;2022-11-30T16:42:36;7.93;;;2.20;;
3967;SDS011;9221;42.646;23.380;2022-11-30T16:45:02;10.90;;;2.10;;
3967;SDS011;9221;42.646;23.380;2022-11-30T16:47:27;4.20;;;1.63;;
3967;SDS011;9221;42.646;23.380;2022-11-30T16:49:53;4.90;;;1.87;;
3967;SDS011;9221;42.646;23.380;2022-11-30T16:52:18;6.93;;;2.30;;
3967;SDS011;9221;42.646;23.380;2022-11-30T16:54:44;3.17;;;1.33;;
3967;SDS011;9221;42.646;23.380;2022-11-30T16:57:09;3.43;;;2.03;;
3967;SDS011;9221;42.646;23.380;2022-11-30T16:59:35;9.97;;;2.47;;
3967;SDS011;9221;42.646;23.380;2022-11-30T17:02:00;3.60;;;1.60;;
3967;SDS011;9221;42.646;23.380;2022-11-30T17:04:26;7.07;;;1.50;;
3967;SDS011;9221;42.646;23.380;2022-11-30T17:06:53;5.43;;;1.90;;
3967;SDS011;9221;42.646;23.380;2022-11-30T17:09:19;3.30;;;1.80;;
3967;SDS011;9221;42.646;23.380;2022-11-30T17:11:45;5.60;;;1.53;;
3967;SDS011;9221;42.646;23.380;2022-11-30T17:14:14;2.17;;;1.43;;
3967;SDS011;9221;42.646;23.380;2022-11-30T17:16:40;2.77;;;1.30;;
3967;SDS011;9221;42.646;23.380;2022-11-30T17:19:06;4.63;;;1.20;;
3967;SDS011;9221;42.646;23.380;2022-11-30T17:21:32;6.00;;;1.30;;
3967;SDS011;9221;42.646;23.380;2022-11-30T17:23:59;2.93;;;1.60;;
3967;SDS011;9221;42.646;23.380;2022-11-30T17:26:25;5.00;;;1.30;;
3967;SDS011;9221;42.646;23.380;2022-11-30T17:28:51;2.97;;;1.20;;
3967;SDS011;9221;42.646;23.380;2022-11-30T17:31:18;5.40;;;1.40;;
3967;SDS011;9221;42.646;23.380;2022-11-30T17:33:45;4.97;;;1.93;;
3967;SDS011;9221;42.646;23.380;2022-11-30T17:36:12;9.93;;;2.27;;
3967;SDS011;9221;42.646;23.380;2022-11-30T17:38:38;2.60;;;1.30;;
3967;SDS011;9221;42.646;23.380;2022-11-30T17:41:08;5.73;;;2.30;;
3967;SDS011;9221;42.646;23.380;2022-11-30T17:43:36;8.30;;;2.27;;
3967;SDS011;9221;42.646;23.380;2022-11-30T17:46:05;1.57;;;1.20;;
3967;SDS011;9221;42.646;23.380;2022-11-30T17:48:32;3.80;;;1.50;;
3967;SDS011;9221;42.646;23.380;2022-11-30T17:50:58;1.20;;;0.90;;
3967;SDS011;9221;42.646;23.380;2022-11-30T17:53:23;3.07;;;1.60;;
3967;SDS011;9221;42.646;23.380;2022-11-30T17:55:49;3.40;;;1.50;;
3967;SDS011;9221;42.646;23.380;2022-11-30T17:58:14;2.40;;;1.27;;
3967;SDS011;9221;42.646;23.380;2022-11-30T18:00:40;4.30;;;1.20;;
3967;SDS011;9221;42.646;23.380;2022-11-30T18:03:05;2.00;;;1.40;;
3967;SDS011;9221;42.646;23.380;2022-11-30T18:05:31;1.67;;;0.77;;
3967;SDS011;9221;42.646;23.380;2022-11-30T18:07:57;4.70;;;1.77;;
3967;SDS011;9221;42.646;23.380;2022-11-30T18:10:23;1.77;;;1.20;;
3967;SDS011;9221;42.646;23.380;2022-11-30T18:12:49;2.57;;;1.13;;
3967;SDS011;9221;42.646;23.380;2022-11-30T18:15:14;3.03;;;1.20;;
3967;SDS011;9221;42.646;23.380;2022-11-30T18:17:40;3.47;;;1.30;;
3967;SDS011;9221;42.646;23.380;2022-11-30T18:20:05;2.83;;;0.97;;
3967;SDS011;9221;42.646;23.380;2022-11-30T18:22:31;4.50;;;1.20;;
3967;SDS011;9221;42.646;23.380;2022-11-30T18:24:57;2.20;;;1.23;;
3967;SDS011;9221;42.646;23.380;2022-11-30T18:27:22;3.37;;;1.13;;
3967;SDS011;9221;42.646;23.380;2022-11-30T18:29:50;5.37;;;1.80;;
3967;SDS011;9221;42.646;23.380;2022-11-30T18:32:16;2.70;;;1.70;;
3967;SDS011;9221;42.646;23.380;2022-11-30T18:34:41;3.07;;;1.50;;
3967;SDS011;9221;42.646;23.380;2022-11-30T18:37:12;6.57;;;2.20;;
3967;SDS011;9221;42.646;23.380;2022-11-30T18:39:38;2.10;;;1.23;;
3967;SDS011;9221;42.646;23.380;2022-11-30T18:42:04;5.40;;;1.73;;
3967;SDS011;9221;42.646;23.380;2022-11-30T18:44:29;3.70;;;1.97;;
3967;SDS011;9221;42.646;23.380;2022-11-30T18:46:55;3.10;;;1.43;;
3967;SDS011;9221;42.646;23.380;2022-11-30T18:49:20;3.73;;;1.80;;